sensor_id;sensor_type;location;lat;lon;timestamp;P1;durP1;ratioP1;P2;durP2;ratioP2
20114;SDS011;10218;42.874;25.320;2022-08-21T00:01:30;16.43;;;10.30;;
20114;SDS011;10218;42.874;25.320;2022-08-21T00:04:03;19.13;;;9.87;;
20114;SDS011;10218;42.874;25.320;2022-08-21T00:06:31;16.17;;;10.10;;
20114;SDS011;10218;42.874;25.320;2022-08-21T00:09:01;15.07;;;10.80;;
20114;SDS011;10218;42.874;25.320;2022-08-21T00:11:31;21.90;;;12.37;;
20114;SDS011;10218;42.874;25.320;2022-08-21T00:13:59;14.67;;;10.17;;
20114;SDS011;10218;42.874;25.320;2022-08-21T00:16:26;13.13;;;10.10;;
20114;SDS011;10218;42.874;25.320;2022-08-21T00:18:53;16.47;;;11.23;;
20114;SDS011;10218;42.874;25.320;2022-08-21T00:21:21;17.70;;;10.83;;
20114;SDS011;10218;42.874;25.320;2022-08-21T00:23:49;20.03;;;10.57;;
20114;SDS011;10218;42.874;25.320;2022-08-21T00:26:16;15.10;;;10.97;;
20114;SDS011;10218;42.874;25.320;2022-08-21T00:28:43;17.20;;;10.67;;
20114;SDS011;10218;42.874;25.320;2022-08-21T00:31:12;16.70;;;10.60;;
20114;SDS011;10218;42.874;25.320;2022-08-21T00:33:39;16.17;;;10.53;;
20114;SDS011;10218;42.874;25.320;2022-08-21T00:36:06;15.40;;;10.37;;
20114;SDS011;10218;42.874;25.320;2022-08-21T00:38:34;17.27;;;11.40;;
20114;SDS011;10218;42.874;25.320;2022-08-21T00:41:04;18.47;;;10.73;;
20114;SDS011;10218;42.874;25.320;2022-08-21T00:43:36;14.50;;;10.20;;
20114;SDS011;10218;42.874;25.320;2022-08-21T00:46:04;16.70;;;10.97;;
20114;SDS011;10218;42.874;25.320;2022-08-21T00:48:32;15.67;;;10.70;;
20114;SDS011;10218;42.874;25.320;2022-08-21T00:51:07;14.43;;;10.77;;
20114;SDS011;10218;42.874;25.320;2022-08-21T00:53:38;16.50;;;10.53;;
20114;SDS011;10218;42.874;25.320;2022-08-21T00:56:07;16.73;;;11.10;;
20114;SDS011;10218;42.874;25.320;2022-08-21T00:58:37;36.10;;;17.77;;
20114;SDS011;10218;42.874;25.320;2022-08-21T01:01:07;36.57;;;18.40;;
20114;SDS011;10218;42.874;25.320;2022-08-21T01:03:35;48.47;;;24.33;;
20114;SDS011;10218;42.874;25.320;2022-08-21T01:06:03;16.40;;;11.10;;
20114;SDS011;10218;42.874;25.320;2022-08-21T01:08:31;15.00;;;11.70;;
20114;SDS011;10218;42.874;25.320;2022-08-21T01:10:59;21.33;;;11.60;;
20114;SDS011;10218;42.874;25.320;2022-08-21T01:13:29;16.77;;;11.80;;
20114;SDS011;10218;42.874;25.320;2022-08-21T01:15:59;16.60;;;11.17;;
20114;SDS011;10218;42.874;25.320;2022-08-21T01:18:29;19.13;;;10.90;;
20114;SDS011;10218;42.874;25.320;2022-08-21T01:21:00;18.40;;;11.03;;
20114;SDS011;10218;42.874;25.320;2022-08-21T01:23:28;16.53;;;10.63;;
20114;SDS011;10218;42.874;25.320;2022-08-21T01:25:55;15.87;;;11.13;;
20114;SDS011;10218;42.874;25.320;2022-08-21T01:28:22;18.97;;;10.53;;
20114;SDS011;10218;42.874;25.320;2022-08-21T01:30:51;13.73;;;8.30;;
20114;SDS011;10218;42.874;25.320;2022-08-21T01:33:20;15.70;;;8.57;;
20114;SDS011;10218;42.874;25.320;2022-08-21T01:35:51;14.17;;;8.30;;
20114;SDS011;10218;42.874;25.320;2022-08-21T01:38:18;16.57;;;8.33;;
20114;SDS011;10218;42.874;25.320;2022-08-21T01:40:46;14.27;;;7.20;;
20114;SDS011;10218;42.874;25.320;2022-08-21T01:43:13;14.30;;;6.47;;
20114;SDS011;10218;42.874;25.320;2022-08-21T01:45:40;15.33;;;6.37;;
20114;SDS011;10218;42.874;25.320;2022-08-21T01:48:07;12.83;;;6.07;;
20114;SDS011;10218;42.874;25.320;2022-08-21T01:50:35;17.10;;;6.50;;
20114;SDS011;10218;42.874;25.320;2022-08-21T01:53:03;11.93;;;6.20;;
20114;SDS011;10218;42.874;25.320;2022-08-21T01:55:30;12.00;;;6.23;;
20114;SDS011;10218;42.874;25.320;2022-08-21T01:57:58;12.87;;;6.90;;
20114;SDS011;10218;42.874;25.320;2022-08-21T02:00:26;12.17;;;7.00;;
20114;SDS011;10218;42.874;25.320;2022-08-21T02:02:53;14.43;;;7.17;;
20114;SDS011;10218;42.874;25.320;2022-08-21T02:05:21;10.50;;;6.37;;
20114;SDS011;10218;42.874;25.320;2022-08-21T02:07:49;12.73;;;6.53;;
20114;SDS011;10218;42.874;25.320;2022-08-21T02:10:21;13.53;;;6.47;;
20114;SDS011;10218;42.874;25.320;2022-08-21T02:12:50;10.60;;;5.77;;
20114;SDS011;10218;42.874;25.320;2022-08-21T02:15:18;10.97;;;6.07;;
20114;SDS011;10218;42.874;25.320;2022-08-21T02:17:47;16.23;;;6.30;;
20114;SDS011;10218;42.874;25.320;2022-08-21T02:20:24;9.33;;;6.03;;
20114;SDS011;10218;42.874;25.320;2022-08-21T02:22:55;13.17;;;5.80;;
20114;SDS011;10218;42.874;25.320;2022-08-21T02:25:23;12.23;;;5.77;;
20114;SDS011;10218;42.874;25.320;2022-08-21T02:27:51;13.10;;;6.03;;
20114;SDS011;10218;42.874;25.320;2022-08-21T02:30:24;12.60;;;6.50;;
20114;SDS011;10218;42.874;25.320;2022-08-21T02:32:54;13.10;;;6.73;;
20114;SDS011;10218;42.874;25.320;2022-08-21T02:35:22;13.40;;;6.53;;
20114;SDS011;10218;42.874;25.320;2022-08-21T02:37:54;12.70;;;6.30;;
20114;SDS011;10218;42.874;25.320;2022-08-21T02:40:28;18.30;;;6.97;;
20114;SDS011;10218;42.874;25.320;2022-08-21T02:42:59;18.63;;;7.47;;
20114;SDS011;10218;42.874;25.320;2022-08-21T02:45:27;13.00;;;8.27;;
20114;SDS011;10218;42.874;25.320;2022-08-21T02:47:56;16.27;;;9.60;;
20114;SDS011;10218;42.874;25.320;2022-08-21T02:50:33;17.23;;;8.73;;
20114;SDS011;10218;42.874;25.320;2022-08-21T02:53:07;11.40;;;8.23;;
20114;SDS011;10218;42.874;25.320;2022-08-21T02:55:36;14.67;;;8.83;;
20114;SDS011;10218;42.874;25.320;2022-08-21T02:58:05;18.63;;;9.03;;
20114;SDS011;10218;42.874;25.320;2022-08-21T03:00:34;15.43;;;9.30;;
20114;SDS011;10218;42.874;25.320;2022-08-21T03:03:04;15.20;;;9.50;;
20114;SDS011;10218;42.874;25.320;2022-08-21T03:05:32;15.67;;;9.23;;
20114;SDS011;10218;42.874;25.320;2022-08-21T03:08:01;17.40;;;9.70;;
20114;SDS011;10218;42.874;25.320;2022-08-21T03:10:31;18.77;;;9.17;;
20114;SDS011;10218;42.874;25.320;2022-08-21T03:12:58;15.73;;;10.40;;
20114;SDS011;10218;42.874;25.320;2022-08-21T03:15:25;12.20;;;9.80;;
20114;SDS011;10218;42.874;25.320;2022-08-21T03:17:52;14.80;;;10.20;;
20114;SDS011;10218;42.874;25.320;2022-08-21T03:20:22;18.10;;;10.20;;
20114;SDS011;10218;42.874;25.320;2022-08-21T03:22:51;15.90;;;9.97;;
20114;SDS011;10218;42.874;25.320;2022-08-21T03:25:20;16.43;;;9.60;;
20114;SDS011;10218;42.874;25.320;2022-08-21T03:27:49;18.93;;;9.40;;
20114;SDS011;10218;42.874;25.320;2022-08-21T03:30:16;11.73;;;8.57;;
20114;SDS011;10218;42.874;25.320;2022-08-21T03:32:47;12.83;;;8.30;;
20114;SDS011;10218;42.874;25.320;2022-08-21T03:35:14;17.50;;;8.07;;
20114;SDS011;10218;42.874;25.320;2022-08-21T03:37:41;16.17;;;8.23;;
20114;SDS011;10218;42.874;25.320;2022-08-21T03:40:10;13.83;;;8.80;;
20114;SDS011;10218;42.874;25.320;2022-08-21T03:42:38;15.80;;;9.00;;
20114;SDS011;10218;42.874;25.320;2022-08-21T03:45:05;14.00;;;8.20;;
20114;SDS011;10218;42.874;25.320;2022-08-21T03:47:33;17.87;;;8.90;;
20114;SDS011;10218;42.874;25.320;2022-08-21T03:50:04;16.80;;;7.87;;
20114;SDS011;10218;42.874;25.320;2022-08-21T03:52:32;12.27;;;7.23;;
20114;SDS011;10218;42.874;25.320;2022-08-21T03:55:00;16.27;;;8.20;;
20114;SDS011;10218;42.874;25.320;2022-08-21T03:57:27;15.17;;;7.97;;
20114;SDS011;10218;42.874;25.320;2022-08-21T03:59:54;14.23;;;7.20;;
20114;SDS011;10218;42.874;25.320;2022-08-21T04:02:21;14.97;;;7.17;;
20114;SDS011;10218;42.874;25.320;2022-08-21T04:04:49;18.20;;;7.83;;
20114;SDS011;10218;42.874;25.320;2022-08-21T04:07:16;16.53;;;7.27;;
20114;SDS011;10218;42.874;25.320;2022-08-21T04:09:44;11.93;;;6.97;;
20114;SDS011;10218;42.874;25.320;2022-08-21T04:12:11;10.90;;;6.70;;
20114;SDS011;10218;42.874;25.320;2022-08-21T04:14:38;14.60;;;6.50;;
20114;SDS011;10218;42.874;25.320;2022-08-21T04:17:05;14.43;;;6.83;;
20114;SDS011;10218;42.874;25.320;2022-08-21T04:19:33;19.00;;;6.83;;
20114;SDS011;10218;42.874;25.320;2022-08-21T04:22:01;17.63;;;7.20;;
20114;SDS011;10218;42.874;25.320;2022-08-21T04:24:28;15.77;;;7.07;;
20114;SDS011;10218;42.874;25.320;2022-08-21T04:26:55;14.87;;;7.50;;
20114;SDS011;10218;42.874;25.320;2022-08-21T04:29:22;15.80;;;8.10;;
20114;SDS011;10218;42.874;25.320;2022-08-21T04:31:49;15.10;;;7.93;;
20114;SDS011;10218;42.874;25.320;2022-08-21T04:34:19;13.17;;;7.50;;
20114;SDS011;10218;42.874;25.320;2022-08-21T04:36:46;12.97;;;8.07;;
20114;SDS011;10218;42.874;25.320;2022-08-21T04:39:13;14.33;;;7.20;;
20114;SDS011;10218;42.874;25.320;2022-08-21T04:41:40;13.77;;;7.47;;
20114;SDS011;10218;42.874;25.320;2022-08-21T04:44:07;11.33;;;7.57;;
20114;SDS011;10218;42.874;25.320;2022-08-21T04:46:34;14.57;;;7.47;;
20114;SDS011;10218;42.874;25.320;2022-08-21T04:49:02;13.20;;;6.87;;
20114;SDS011;10218;42.874;25.320;2022-08-21T04:51:30;13.27;;;7.13;;
20114;SDS011;10218;42.874;25.320;2022-08-21T04:54:12;13.40;;;7.30;;
20114;SDS011;10218;42.874;25.320;2022-08-21T04:56:51;11.23;;;6.73;;
20114;SDS011;10218;42.874;25.320;2022-08-21T04:59:27;15.50;;;8.90;;
20114;SDS011;10218;42.874;25.320;2022-08-21T05:01:59;13.03;;;8.30;;
20114;SDS011;10218;42.874;25.320;2022-08-21T05:04:28;13.73;;;7.13;;
20114;SDS011;10218;42.874;25.320;2022-08-21T05:06:59;14.23;;;7.20;;
20114;SDS011;10218;42.874;25.320;2022-08-21T05:09:28;12.63;;;7.13;;
20114;SDS011;10218;42.874;25.320;2022-08-21T05:11:56;13.20;;;7.47;;
20114;SDS011;10218;42.874;25.320;2022-08-21T05:14:24;10.23;;;7.33;;
20114;SDS011;10218;42.874;25.320;2022-08-21T05:16:53;12.83;;;7.13;;
20114;SDS011;10218;42.874;25.320;2022-08-21T05:19:20;11.57;;;7.00;;
20114;SDS011;10218;42.874;25.320;2022-08-21T05:21:48;12.03;;;6.60;;
20114;SDS011;10218;42.874;25.320;2022-08-21T05:24:15;10.97;;;6.97;;
20114;SDS011;10218;42.874;25.320;2022-08-21T05:26:42;11.13;;;6.80;;
20114;SDS011;10218;42.874;25.320;2022-08-21T05:29:10;14.60;;;6.93;;
20114;SDS011;10218;42.874;25.320;2022-08-21T05:31:37;10.17;;;6.80;;
20114;SDS011;10218;42.874;25.320;2022-08-21T05:34:05;15.53;;;7.00;;
20114;SDS011;10218;42.874;25.320;2022-08-21T05:36:32;12.87;;;7.37;;
20114;SDS011;10218;42.874;25.320;2022-08-21T05:38:59;12.30;;;7.10;;
20114;SDS011;10218;42.874;25.320;2022-08-21T05:41:27;14.43;;;7.23;;
20114;SDS011;10218;42.874;25.320;2022-08-21T05:43:54;13.57;;;7.53;;
20114;SDS011;10218;42.874;25.320;2022-08-21T05:46:21;12.37;;;7.23;;
20114;SDS011;10218;42.874;25.320;2022-08-21T05:48:48;15.37;;;7.10;;
20114;SDS011;10218;42.874;25.320;2022-08-21T05:51:16;14.27;;;7.70;;
20114;SDS011;10218;42.874;25.320;2022-08-21T05:53:44;16.13;;;8.07;;
20114;SDS011;10218;42.874;25.320;2022-08-21T05:56:12;16.10;;;7.93;;
20114;SDS011;10218;42.874;25.320;2022-08-21T05:58:40;16.90;;;7.17;;
20114;SDS011;10218;42.874;25.320;2022-08-21T06:01:07;11.07;;;8.13;;
20114;SDS011;10218;42.874;25.320;2022-08-21T06:03:37;13.67;;;7.77;;
20114;SDS011;10218;42.874;25.320;2022-08-21T06:06:06;13.53;;;7.23;;
20114;SDS011;10218;42.874;25.320;2022-08-21T06:08:34;21.70;;;9.53;;
20114;SDS011;10218;42.874;25.320;2022-08-21T06:11:03;16.50;;;8.00;;
20114;SDS011;10218;42.874;25.320;2022-08-21T06:13:32;14.40;;;7.10;;
20114;SDS011;10218;42.874;25.320;2022-08-21T06:16:04;13.17;;;7.47;;
20114;SDS011;10218;42.874;25.320;2022-08-21T06:18:34;17.03;;;8.60;;
20114;SDS011;10218;42.874;25.320;2022-08-21T06:21:02;13.13;;;7.13;;
20114;SDS011;10218;42.874;25.320;2022-08-21T06:23:29;12.07;;;7.40;;
20114;SDS011;10218;42.874;25.320;2022-08-21T06:25:57;14.73;;;8.00;;
20114;SDS011;10218;42.874;25.320;2022-08-21T06:28:24;20.07;;;10.07;;
20114;SDS011;10218;42.874;25.320;2022-08-21T06:30:51;16.17;;;8.30;;
20114;SDS011;10218;42.874;25.320;2022-08-21T06:33:19;14.50;;;7.87;;
20114;SDS011;10218;42.874;25.320;2022-08-21T06:35:46;15.93;;;7.80;;
20114;SDS011;10218;42.874;25.320;2022-08-21T06:38:13;14.33;;;7.03;;
20114;SDS011;10218;42.874;25.320;2022-08-21T06:40:40;11.23;;;7.27;;
20114;SDS011;10218;42.874;25.320;2022-08-21T06:43:09;13.93;;;7.70;;
20114;SDS011;10218;42.874;25.320;2022-08-21T06:45:41;12.93;;;7.73;;
20114;SDS011;10218;42.874;25.320;2022-08-21T06:48:08;16.73;;;7.13;;
20114;SDS011;10218;42.874;25.320;2022-08-21T06:50:36;18.07;;;7.50;;
20114;SDS011;10218;42.874;25.320;2022-08-21T06:53:06;14.33;;;7.23;;
20114;SDS011;10218;42.874;25.320;2022-08-21T06:55:34;15.93;;;6.97;;
20114;SDS011;10218;42.874;25.320;2022-08-21T06:58:02;12.57;;;6.97;;
20114;SDS011;10218;42.874;25.320;2022-08-21T07:00:29;11.37;;;6.90;;
20114;SDS011;10218;42.874;25.320;2022-08-21T07:02:56;15.43;;;6.67;;
20114;SDS011;10218;42.874;25.320;2022-08-21T07:05:27;14.33;;;6.80;;
20114;SDS011;10218;42.874;25.320;2022-08-21T07:07:56;14.40;;;7.00;;
20114;SDS011;10218;42.874;25.320;2022-08-21T07:10:24;11.67;;;6.40;;
20114;SDS011;10218;42.874;25.320;2022-08-21T07:12:52;13.50;;;7.00;;
20114;SDS011;10218;42.874;25.320;2022-08-21T07:15:21;11.13;;;6.70;;
20114;SDS011;10218;42.874;25.320;2022-08-21T07:17:48;13.90;;;6.77;;
20114;SDS011;10218;42.874;25.320;2022-08-21T07:20:15;15.27;;;6.70;;
20114;SDS011;10218;42.874;25.320;2022-08-21T07:22:43;14.50;;;6.40;;
20114;SDS011;10218;42.874;25.320;2022-08-21T07:25:10;10.17;;;6.47;;
20114;SDS011;10218;42.874;25.320;2022-08-21T07:27:37;12.03;;;5.70;;
20114;SDS011;10218;42.874;25.320;2022-08-21T07:30:05;9.97;;;6.10;;
20114;SDS011;10218;42.874;25.320;2022-08-21T07:32:32;16.13;;;8.53;;
20114;SDS011;10218;42.874;25.320;2022-08-21T07:35:00;11.93;;;6.77;;
20114;SDS011;10218;42.874;25.320;2022-08-21T07:37:27;13.13;;;6.97;;
20114;SDS011;10218;42.874;25.320;2022-08-21T07:39:54;13.07;;;6.57;;
20114;SDS011;10218;42.874;25.320;2022-08-21T07:42:21;12.70;;;6.00;;
20114;SDS011;10218;42.874;25.320;2022-08-21T07:44:48;12.80;;;5.53;;
20114;SDS011;10218;42.874;25.320;2022-08-21T07:47:15;14.10;;;5.77;;
20114;SDS011;10218;42.874;25.320;2022-08-21T07:49:42;16.70;;;6.27;;
20114;SDS011;10218;42.874;25.320;2022-08-21T07:52:10;10.33;;;5.90;;
20114;SDS011;10218;42.874;25.320;2022-08-21T07:54:37;11.13;;;5.83;;
20114;SDS011;10218;42.874;25.320;2022-08-21T07:57:04;12.87;;;6.47;;
20114;SDS011;10218;42.874;25.320;2022-08-21T07:59:31;12.77;;;5.83;;
20114;SDS011;10218;42.874;25.320;2022-08-21T08:01:58;15.03;;;7.03;;
20114;SDS011;10218;42.874;25.320;2022-08-21T08:04:26;15.57;;;5.63;;
20114;SDS011;10218;42.874;25.320;2022-08-21T08:06:53;10.37;;;5.80;;
20114;SDS011;10218;42.874;25.320;2022-08-21T08:09:20;10.93;;;6.00;;
20114;SDS011;10218;42.874;25.320;2022-08-21T08:11:47;12.23;;;5.87;;
20114;SDS011;10218;42.874;25.320;2022-08-21T08:14:14;12.37;;;5.70;;
20114;SDS011;10218;42.874;25.320;2022-08-21T08:16:42;11.50;;;5.40;;
20114;SDS011;10218;42.874;25.320;2022-08-21T08:19:09;11.47;;;6.00;;
20114;SDS011;10218;42.874;25.320;2022-08-21T08:21:36;13.93;;;5.77;;
20114;SDS011;10218;42.874;25.320;2022-08-21T08:24:04;13.77;;;5.73;;
20114;SDS011;10218;42.874;25.320;2022-08-21T08:26:32;11.60;;;5.73;;
20114;SDS011;10218;42.874;25.320;2022-08-21T08:28:59;11.20;;;5.70;;
20114;SDS011;10218;42.874;25.320;2022-08-21T08:31:26;13.13;;;5.50;;
20114;SDS011;10218;42.874;25.320;2022-08-21T08:33:54;11.97;;;5.50;;
20114;SDS011;10218;42.874;25.320;2022-08-21T08:36:21;12.70;;;5.93;;
20114;SDS011;10218;42.874;25.320;2022-08-21T08:39:03;13.17;;;5.90;;
20114;SDS011;10218;42.874;25.320;2022-08-21T08:41:32;12.70;;;6.70;;
20114;SDS011;10218;42.874;25.320;2022-08-21T08:44:00;13.37;;;6.40;;
20114;SDS011;10218;42.874;25.320;2022-08-21T08:54:50;14.43;;;5.90;;
20114;SDS011;10218;42.874;25.320;2022-08-21T08:57:24;12.03;;;5.67;;
20114;SDS011;10218;42.874;25.320;2022-08-21T08:59:53;11.37;;;5.93;;
20114;SDS011;10218;42.874;25.320;2022-08-21T09:02:22;10.33;;;6.13;;
20114;SDS011;10218;42.874;25.320;2022-08-21T09:04:50;13.23;;;5.73;;
20114;SDS011;10218;42.874;25.320;2022-08-21T09:10:21;12.13;;;6.50;;
20114;SDS011;10218;42.874;25.320;2022-08-21T09:13:02;17.07;;;6.30;;
20114;SDS011;10218;42.874;25.320;2022-08-21T09:15:33;13.33;;;6.23;;
20114;SDS011;10218;42.874;25.320;2022-08-21T09:26:17;12.10;;;5.73;;
20114;SDS011;10218;42.874;25.320;2022-08-21T09:28:50;14.00;;;6.23;;
20114;SDS011;10218;42.874;25.320;2022-08-21T09:31:25;10.70;;;6.33;;
20114;SDS011;10218;42.874;25.320;2022-08-21T09:34:00;10.93;;;6.07;;
20114;SDS011;10218;42.874;25.320;2022-08-21T09:39:11;13.97;;;6.57;;
20114;SDS011;10218;42.874;25.320;2022-08-21T09:41:54;9.27;;;5.93;;
20114;SDS011;10218;42.874;25.320;2022-08-21T09:44:27;11.07;;;5.87;;
20114;SDS011;10218;42.874;25.320;2022-08-21T09:46:57;10.33;;;6.37;;
20114;SDS011;10218;42.874;25.320;2022-08-21T09:49:33;14.43;;;6.33;;
20114;SDS011;10218;42.874;25.320;2022-08-21T09:52:11;12.57;;;6.30;;
20114;SDS011;10218;42.874;25.320;2022-08-21T09:54:53;12.73;;;6.23;;
20114;SDS011;10218;42.874;25.320;2022-08-21T09:57:25;12.40;;;6.43;;
20114;SDS011;10218;42.874;25.320;2022-08-21T10:02:43;12.73;;;6.27;;
20114;SDS011;10218;42.874;25.320;2022-08-21T10:05:24;11.77;;;6.13;;
20114;SDS011;10218;42.874;25.320;2022-08-21T10:07:53;16.10;;;8.17;;
20114;SDS011;10218;42.874;25.320;2022-08-21T10:10:22;12.10;;;6.30;;
20114;SDS011;10218;42.874;25.320;2022-08-21T10:26:54;11.87;;;6.43;;
20114;SDS011;10218;42.874;25.320;2022-08-21T10:29:39;10.70;;;6.50;;
20114;SDS011;10218;42.874;25.320;2022-08-21T10:43:07;10.47;;;7.27;;
20114;SDS011;10218;42.874;25.320;2022-08-21T10:48:50;16.40;;;6.97;;
20114;SDS011;10218;42.874;25.320;2022-08-21T10:54:19;14.30;;;6.50;;
20114;SDS011;10218;42.874;25.320;2022-08-21T10:57:16;11.40;;;6.23;;
20114;SDS011;10218;42.874;25.320;2022-08-21T10:59:59;9.67;;;6.40;;
20114;SDS011;10218;42.874;25.320;2022-08-21T11:02:38;12.47;;;5.77;;
20114;SDS011;10218;42.874;25.320;2022-08-21T11:05:13;9.57;;;5.70;;
20114;SDS011;10218;42.874;25.320;2022-08-21T11:07:51;10.50;;;5.87;;
20114;SDS011;10218;42.874;25.320;2022-08-21T11:16:23;9.47;;;5.70;;
20114;SDS011;10218;42.874;25.320;2022-08-21T11:19:15;10.70;;;5.50;;
20114;SDS011;10218;42.874;25.320;2022-08-21T11:21:58;11.40;;;5.90;;
20114;SDS011;10218;42.874;25.320;2022-08-21T11:27:22;12.00;;;7.33;;
20114;SDS011;10218;42.874;25.320;2022-08-21T11:29:59;9.88;;;6.05;;
20114;SDS011;10218;42.874;25.320;2022-08-21T11:35:13;49.53;;;33.38;;
20114;SDS011;10218;42.874;25.320;2022-08-21T11:37:57;11.70;;;5.68;;
20114;SDS011;10218;42.874;25.320;2022-08-21T11:40:37;12.48;;;5.60;;
20114;SDS011;10218;42.874;25.320;2022-08-21T11:45:47;9.85;;;5.00;;
20114;SDS011;10218;42.874;25.320;2022-08-21T11:51:07;14.40;;;6.35;;
20114;SDS011;10218;42.874;25.320;2022-08-21T11:53:44;9.48;;;6.28;;
20114;SDS011;10218;42.874;25.320;2022-08-21T11:56:21;21.70;;;14.05;;
20114;SDS011;10218;42.874;25.320;2022-08-21T11:58:56;12.02;;;6.05;;
20114;SDS011;10218;42.874;25.320;2022-08-21T12:01:30;12.27;;;6.20;;
20114;SDS011;10218;42.874;25.320;2022-08-21T12:04:04;8.07;;;5.80;;
20114;SDS011;10218;42.874;25.320;2022-08-21T12:06:52;15.40;;;7.03;;
20114;SDS011;10218;42.874;25.320;2022-08-21T12:17:17;11.18;;;5.87;;
20114;SDS011;10218;42.874;25.320;2022-08-21T12:19:59;12.02;;;5.28;;
20114;SDS011;10218;42.874;25.320;2022-08-21T12:22:38;8.98;;;6.03;;
20114;SDS011;10218;42.874;25.320;2022-08-21T12:25:08;9.18;;;5.50;;
20114;SDS011;10218;42.874;25.320;2022-08-21T12:33:01;11.12;;;5.40;;
20114;SDS011;10218;42.874;25.320;2022-08-21T12:35:33;10.43;;;5.43;;
20114;SDS011;10218;42.874;25.320;2022-08-21T12:38:15;10.80;;;5.35;;
20114;SDS011;10218;42.874;25.320;2022-08-21T12:43:21;9.75;;;5.55;;
20114;SDS011;10218;42.874;25.320;2022-08-21T12:45:56;9.52;;;5.20;;
20114;SDS011;10218;42.874;25.320;2022-08-21T12:48:45;15.90;;;6.70;;
20114;SDS011;10218;42.874;25.320;2022-08-21T12:51:22;13.07;;;7.57;;
20114;SDS011;10218;42.874;25.320;2022-08-21T12:53:57;11.20;;;5.35;;
20114;SDS011;10218;42.874;25.320;2022-08-21T12:56:27;10.60;;;5.95;;
20114;SDS011;10218;42.874;25.320;2022-08-21T12:59:01;12.32;;;6.12;;
20114;SDS011;10218;42.874;25.320;2022-08-21T13:01:32;9.65;;;5.65;;
20114;SDS011;10218;42.874;25.320;2022-08-21T13:04:09;10.63;;;5.95;;
20114;SDS011;10218;42.874;25.320;2022-08-21T13:06:42;12.85;;;6.18;;
20114;SDS011;10218;42.874;25.320;2022-08-21T13:09:13;12.73;;;6.05;;
20114;SDS011;10218;42.874;25.320;2022-08-21T13:11:47;12.40;;;5.75;;
20114;SDS011;10218;42.874;25.320;2022-08-21T13:14:27;13.02;;;6.60;;
20114;SDS011;10218;42.874;25.320;2022-08-21T13:17:22;15.20;;;6.97;;
20114;SDS011;10218;42.874;25.320;2022-08-21T13:22:23;9.97;;;6.30;;
20114;SDS011;10218;42.874;25.320;2022-08-21T13:24:50;10.70;;;6.37;;
20114;SDS011;10218;42.874;25.320;2022-08-21T13:27:19;13.23;;;6.77;;
20114;SDS011;10218;42.874;25.320;2022-08-21T13:30:11;13.03;;;6.53;;
20114;SDS011;10218;42.874;25.320;2022-08-21T13:32:48;10.23;;;6.37;;
20114;SDS011;10218;42.874;25.320;2022-08-21T13:35:20;13.97;;;6.50;;
20114;SDS011;10218;42.874;25.320;2022-08-21T13:37:50;10.57;;;6.30;;
20114;SDS011;10218;42.874;25.320;2022-08-21T13:40:20;12.47;;;7.00;;
20114;SDS011;10218;42.874;25.320;2022-08-21T13:42:55;10.37;;;6.30;;
20114;SDS011;10218;42.874;25.320;2022-08-21T13:45:29;6.67;;;5.03;;
20114;SDS011;10218;42.874;25.320;2022-08-21T13:47:59;9.17;;;5.27;;
20114;SDS011;10218;42.874;25.320;2022-08-21T13:50:28;9.70;;;4.53;;
20114;SDS011;10218;42.874;25.320;2022-08-21T13:52:58;6.17;;;4.73;;
20114;SDS011;10218;42.874;25.320;2022-08-21T13:55:34;6.83;;;4.80;;
20114;SDS011;10218;42.874;25.320;2022-08-21T13:58:08;7.43;;;4.90;;
20114;SDS011;10218;42.874;25.320;2022-08-21T14:00:47;10.17;;;5.23;;
20114;SDS011;10218;42.874;25.320;2022-08-21T14:03:31;9.77;;;5.17;;
20114;SDS011;10218;42.874;25.320;2022-08-21T14:06:01;10.57;;;7.70;;
20114;SDS011;10218;42.874;25.320;2022-08-21T14:11:02;8.67;;;4.97;;
20114;SDS011;10218;42.874;25.320;2022-08-21T14:13:39;7.57;;;5.33;;
20114;SDS011;10218;42.874;25.320;2022-08-21T14:18:49;11.73;;;5.83;;
20114;SDS011;10218;42.874;25.320;2022-08-21T14:21:50;10.23;;;6.17;;
20114;SDS011;10218;42.874;25.320;2022-08-21T14:27:06;9.80;;;4.60;;
20114;SDS011;10218;42.874;25.320;2022-08-21T14:29:36;13.07;;;6.63;;
20114;SDS011;10218;42.874;25.320;2022-08-21T14:32:23;8.07;;;4.70;;
20114;SDS011;10218;42.874;25.320;2022-08-21T14:34:57;9.10;;;5.17;;
20114;SDS011;10218;42.874;25.320;2022-08-21T14:37:24;11.73;;;5.37;;
20114;SDS011;10218;42.874;25.320;2022-08-21T14:39:52;10.40;;;5.53;;
20114;SDS011;10218;42.874;25.320;2022-08-21T14:42:19;9.93;;;5.23;;
20114;SDS011;10218;42.874;25.320;2022-08-21T14:44:46;11.20;;;5.70;;
20114;SDS011;10218;42.874;25.320;2022-08-21T14:47:14;8.57;;;5.53;;
20114;SDS011;10218;42.874;25.320;2022-08-21T14:49:41;12.40;;;6.80;;
20114;SDS011;10218;42.874;25.320;2022-08-21T14:52:09;9.83;;;5.40;;
20114;SDS011;10218;42.874;25.320;2022-08-21T14:54:36;11.87;;;5.83;;
20114;SDS011;10218;42.874;25.320;2022-08-21T14:57:05;11.93;;;6.53;;
20114;SDS011;10218;42.874;25.320;2022-08-21T14:59:35;9.17;;;6.40;;
20114;SDS011;10218;42.874;25.320;2022-08-21T15:02:04;11.03;;;6.20;;
20114;SDS011;10218;42.874;25.320;2022-08-21T15:04:33;12.43;;;6.60;;
20114;SDS011;10218;42.874;25.320;2022-08-21T15:07:01;13.20;;;6.53;;
20114;SDS011;10218;42.874;25.320;2022-08-21T15:09:28;12.13;;;7.37;;
20114;SDS011;10218;42.874;25.320;2022-08-21T15:11:56;38.50;;;19.30;;
20114;SDS011;10218;42.874;25.320;2022-08-21T15:14:27;11.83;;;7.40;;
20114;SDS011;10218;42.874;25.320;2022-08-21T15:16:57;14.33;;;8.40;;
20114;SDS011;10218;42.874;25.320;2022-08-21T15:19:25;12.30;;;6.60;;
20114;SDS011;10218;42.874;25.320;2022-08-21T15:21:52;15.73;;;9.50;;
20114;SDS011;10218;42.874;25.320;2022-08-21T15:24:19;19.87;;;12.47;;
20114;SDS011;10218;42.874;25.320;2022-08-21T15:26:47;45.40;;;22.17;;
20114;SDS011;10218;42.874;25.320;2022-08-21T15:29:14;45.87;;;23.00;;
20114;SDS011;10218;42.874;25.320;2022-08-21T15:31:55;18.20;;;11.00;;
20114;SDS011;10218;42.874;25.320;2022-08-21T15:34:25;41.70;;;21.83;;
20114;SDS011;10218;42.874;25.320;2022-08-21T15:36:56;98.97;;;43.17;;
20114;SDS011;10218;42.874;25.320;2022-08-21T15:39:24;47.03;;;20.73;;
20114;SDS011;10218;42.874;25.320;2022-08-21T15:41:52;42.10;;;21.13;;
20114;SDS011;10218;42.874;25.320;2022-08-21T15:44:20;44.03;;;21.30;;
20114;SDS011;10218;42.874;25.320;2022-08-21T15:46:47;45.60;;;20.53;;
20114;SDS011;10218;42.874;25.320;2022-08-21T15:49:14;14.30;;;8.30;;
20114;SDS011;10218;42.874;25.320;2022-08-21T15:51:41;11.07;;;7.67;;
20114;SDS011;10218;42.874;25.320;2022-08-21T15:54:09;13.40;;;7.40;;
20114;SDS011;10218;42.874;25.320;2022-08-21T15:56:37;13.90;;;7.20;;
20114;SDS011;10218;42.874;25.320;2022-08-21T15:59:12;12.80;;;7.40;;
20114;SDS011;10218;42.874;25.320;2022-08-21T16:01:42;12.60;;;7.20;;
20114;SDS011;10218;42.874;25.320;2022-08-21T16:04:15;13.70;;;7.40;;
20114;SDS011;10218;42.874;25.320;2022-08-21T16:06:48;12.17;;;7.53;;
20114;SDS011;10218;42.874;25.320;2022-08-21T16:09:16;12.27;;;8.30;;
20114;SDS011;10218;42.874;25.320;2022-08-21T16:11:43;18.83;;;9.57;;
20114;SDS011;10218;42.874;25.320;2022-08-21T16:14:11;13.57;;;8.10;;
20114;SDS011;10218;42.874;25.320;2022-08-21T16:16:41;14.93;;;7.50;;
20114;SDS011;10218;42.874;25.320;2022-08-21T16:19:08;11.20;;;7.10;;